Portland, Missouri
Current Conditions -  °F | °C
As of 5:53 AM on Thursday 23 Oct 2014 (Local Time) from KJEF Reporting Station
Clear Clear  
Wind Chill: 43°   Ceiling: Unl
Heat Index: 45°   Visibility: 10mi
Dew Point: 41°   Wind: 5mph
Humidity: 86%   Direction: 130°SE
Pressure: 30.18"   Gusts: NA
Location:  38.71°N, 91.72°W
Report Text: KJEF 231053Z 13004KT 10SM CLR 07/05 A3018 RMK AO2 SLP210 T00720050
Loading
Personal Weather Stations






























Interactive Weather Map
Tropical Storm Tracking
New forecast layout! Learn more

10-Day Weather Forecast

Advertisements
Track Severe Weather on mobile